Time;durP1;ratioP1;P1;durP2;ratioP2;P2;SDS_P1;SDS_P2;PMS_P1;PMS_P2;Temp;Humidity;BMP_temperature;BMP_pressure;BME280_temperature;BME280_humidity;BME280_pressure;Samples;Min_cycle;Max_cycle;Signal;HPM_P1;HPM_P2
2024/03/29 01:45:40;;;;;;;1.90;1.73;;;;;;;7.49;100.00;99352.22;6127963;28;20731;-78
2024/03/29 01:49:01;;;;;;;2.63;1.93;;;;;;;7.46;100.00;99363.25;6136752;28;20298;-77
2024/03/29 01:52:26;;;;;;;1.47;1.37;;;;;;;7.44;100.00;99351.84;6139596;28;20240;-78
2024/03/29 01:55:47;;;;;;;1.57;1.10;;;;;;;7.49;100.00;99358.41;6126790;28;20231;-75
2024/03/29 01:59:14;;;;;;;7.03;1.60;;;;;;;7.43;100.00;99356.34;6150555;28;20231;-76
2024/03/29 02:02:36;;;;;;;2.27;1.37;;;;;;;7.43;100.00;99350.13;6137873;28;20231;-76
2024/03/29 02:05:59;;;;;;;2.20;1.63;;;;;;;7.37;100.00;99356.13;6124395;28;20525;-75
2024/03/29 02:09:21;;;;;;;3.10;1.97;;;;;;;7.33;100.00;99362.78;6135214;28;20286;-77
2024/03/29 02:12:42;;;;;;;1.70;1.20;;;;;;;7.32;100.00;99353.06;6136910;28;20310;-76
2024/03/29 02:16:04;;;;;;;4.07;1.70;;;;;;;7.37;100.00;99364.16;6092333;28;20223;-76
2024/03/29 02:19:25;;;;;;;4.53;1.80;;;;;;;7.32;100.00;99364.63;6136912;28;21457;-76
2024/03/29 02:22:53;;;;;;;2.00;1.80;;;;;;;7.31;100.00;99360.25;6139102;28;20238;-75
2024/03/29 02:26:17;;;;;;;1.93;1.20;;;;;;;7.37;100.00;99372.19;6137515;28;20258;-75
2024/03/29 02:29:37;;;;;;;4.30;2.07;;;;;;;7.35;100.00;99369.69;6136612;28;20632;-76
2024/03/29 02:32:58;;;;;;;2.10;1.90;;;;;;;7.32;100.00;99366.47;6106240;28;20238;-75
2024/03/29 02:36:19;;;;;;;1.70;1.60;;;;;;;7.34;100.00;99373.38;6125577;28;20584;-76
2024/03/29 02:39:41;;;;;;;1.80;1.63;;;;;;;7.35;100.00;99384.91;6132241;28;20625;-75
2024/03/29 02:43:04;;;;;;;1.90;1.30;;;;;;;7.34;100.00;99381.41;6120751;28;20682;-76
2024/03/29 02:46:25;;;;;;;2.80;1.20;;;;;;;7.24;100.00;99394.00;6133161;28;20230;-76
2024/03/29 02:49:45;;;;;;;1.27;1.17;;;;;;;7.28;100.00;99384.66;6132284;28;20239;-75
2024/03/29 02:53:06;;;;;;;2.57;1.60;;;;;;;7.22;100.00;99385.28;6138893;28;20323;-75
2024/03/29 02:56:27;;;;;;;5.17;2.17;;;;;;;7.22;100.00;99393.31;6130821;28;20234;-75
2024/03/29 02:59:49;;;;;;;1.90;1.80;;;;;;;7.20;100.00;99387.28;6133008;28;20271;-75
2024/03/29 03:03:10;;;;;;;1.87;1.30;;;;;;;7.20;100.00;99385.44;6131719;28;20234;-75
2024/03/29 03:06:31;;;;;;;3.10;1.60;;;;;;;7.17;100.00;99375.03;6116087;28;20231;-75
2024/03/29 03:13:31;;;;;;;1.33;1.10;;;;;;;7.17;100.00;99368.84;6148043;28;20326;-75
2024/03/29 03:16:53;;;;;;;3.30;1.87;;;;;;;7.10;100.00;99365.06;6097064;28;20772;-75
2024/03/29 03:20:16;;;;;;;1.70;1.43;;;;;;;6.99;100.00;99363.44;6115773;28;20589;-76
2024/03/29 03:23:36;;;;;;;4.50;1.63;;;;;;;6.92;100.00;99358.84;6143716;28;20239;-76
2024/03/29 03:26:56;;;;;;;1.17;1.13;;;;;;;6.82;100.00;99353.53;6132076;28;20231;-77
2024/03/29 03:30:18;;;;;;;2.40;1.80;;;;;;;6.83;100.00;99349.88;6122287;28;20812;-76
2024/03/29 03:33:40;;;;;;;1.10;1.03;;;;;;;6.79;100.00;99350.31;6116330;28;20237;-77
2024/03/29 03:37:00;;;;;;;1.20;1.07;;;;;;;6.74;100.00;99350.75;6130223;28;20324;-77
2024/03/29 03:40:21;;;;;;;1.37;1.27;;;;;;;6.73;100.00;99356.28;6120018;28;20266;-76
2024/03/29 03:43:41;;;;;;;1.90;1.40;;;;;;;6.68;100.00;99348.69;6148669;28;20246;-77
2024/03/29 03:47:02;;;;;;;2.03;1.43;;;;;;;6.69;100.00;99360.25;6104761;28;20251;-76
2024/03/29 03:50:24;;;;;;;1.87;1.30;;;;;;;6.81;100.00;99369.75;6146063;28;20231;-76
2024/03/29 03:53:44;;;;;;;0.97;0.97;;;;;;;6.82;100.00;99383.00;6130783;28;20246;-77
2024/03/29 03:57:05;;;;;;;3.33;1.43;;;;;;;6.84;100.00;99377.50;6128129;28;20341;-75
2024/03/29 04:00:26;;;;;;;1.63;1.33;;;;;;;6.81;100.00;99372.44;6122634;28;20246;-76
2024/03/29 04:03:47;;;;;;;1.80;1.10;;;;;;;6.87;100.00;99370.00;6114927;28;20251;-77
2024/03/29 04:07:09;;;;;;;1.43;1.23;;;;;;;6.94;100.00;99375.59;6126901;28;20234;-77
2024/03/29 04:10:29;;;;;;;2.27;1.40;;;;;;;6.94;100.00;99375.59;6129377;28;20235;-75
2024/03/29 04:13:49;;;;;;;1.43;1.33;;;;;;;6.84;100.00;99375.66;6105801;28;20231;-77
2024/03/29 04:17:10;;;;;;;2.80;1.70;;;;;;;6.88;100.00;99378.88;6134417;28;20241;-78
2024/03/29 04:20:32;;;;;;;1.77;1.53;;;;;;;6.88;100.00;99370.84;6112226;28;20231;-77
2024/03/29 04:23:54;;;;;;;1.20;1.10;;;;;;;6.80;100.00;99371.59;6133853;28;20231;-76
2024/03/29 04:27:16;;;;;;;1.13;1.03;;;;;;;6.88;100.00;99378.88;6138440;28;20226;-75
2024/03/29 04:30:37;;;;;;;2.23;1.03;;;;;;;6.90;100.00;99367.03;6145074;28;20222;-76
2024/03/29 04:33:58;;;;;;;3.30;1.03;;;;;;;6.89;100.00;99364.50;6131484;28;20227;-77
2024/03/29 04:37:19;;;;;;;2.77;1.20;;;;;;;6.99;100.00;99359.91;6104843;28;20220;-76
2024/03/29 04:40:41;;;;;;;2.03;0.90;;;;;;;6.83;100.00;99375.81;6122737;28;20738;-78
2024/03/29 04:44:02;;;;;;;1.73;1.40;;;;;;;7.03;100.00;99372.84;6124795;28;20243;-77
2024/03/29 04:47:23;;;;;;;2.40;1.57;;;;;;;7.05;100.00;99372.72;6111596;28;20636;-78
2024/03/29 04:50:44;;;;;;;1.20;1.10;;;;;;;6.79;100.00;99379.78;6127554;28;20247;-76
2024/03/29 04:54:06;;;;;;;1.70;1.10;;;;;;;6.97;100.00;99381.50;6145217;28;20231;-77
2024/03/29 04:57:29;;;;;;;1.30;1.20;;;;;;;6.93;100.00;99398.00;6145421;28;20234;-77
2024/03/29 05:00:50;;;;;;;2.73;1.33;;;;;;;6.84;100.00;99397.06;6114183;28;20577;-76
2024/03/29 05:04:12;;;;;;;1.10;1.10;;;;;;;6.89;100.00;99399.31;6122494;28;20235;-76
2024/03/29 05:07:33;;;;;;;1.17;1.00;;;;;;;6.79;100.00;99402.06;6150725;28;20290;-77
2024/03/29 05:10:54;;;;;;;1.20;1.10;;;;;;;6.97;100.00;99407.44;6114587;28;20230;-76
2024/03/29 05:14:18;;;;;;;3.40;1.63;;;;;;;6.99;100.00;99405.44;6132185;28;20234;-76
2024/03/29 05:17:41;;;;;;;1.13;1.10;;;;;;;6.85;100.00;99397.91;6132146;28;20474;-76
2024/03/29 05:21:02;;;;;;;5.10;1.73;;;;;;;6.90;100.00;99403.69;6120668;28;20259;-77
2024/03/29 05:24:23;;;;;;;3.03;1.27;;;;;;;6.84;100.00;99418.50;6120456;28;20243;-77
2024/03/29 05:27:44;;;;;;;0.93;0.87;;;;;;;6.96;100.00;99398.59;6135398;28;20240;-76
2024/03/29 05:31:31;;;;;;;3.10;1.43;;;;;;;6.98;100.00;99409.13;6137596;28;20613;-76
2024/03/29 05:34:52;;;;;;;1.97;1.67;;;;;;;7.02;100.00;99422.09;6141303;28;20239;-75
2024/03/29 05:38:13;;;;;;;3.50;1.63;;;;;;;7.04;100.00;99414.75;6128296;28;20318;-79
2024/03/29 05:41:34;;;;;;;1.97;1.07;;;;;;;6.99;100.00;99424.19;6126496;28;20235;-78
2024/03/29 05:44:55;;;;;;;2.60;1.23;;;;;;;7.09;100.00;99435.75;6130101;28;20243;-76
2024/03/29 05:48:18;;;;;;;3.20;1.40;;;;;;;7.15;100.00;99432.47;6108716;28;20239;-76
2024/03/29 05:51:40;;;;;;;2.57;1.10;;;;;;;7.28;100.00;99436.44;6105204;28;20231;-77
2024/03/29 05:55:06;;;;;;;2.77;1.33;;;;;;;7.25;100.00;99435.91;6137036;28;20512;-77
2024/03/29 05:58:27;;;;;;;5.47;1.63;;;;;;;7.23;100.00;99437.91;6144226;28;20621;-76
2024/03/29 06:01:48;;;;;;;0.90;0.90;;;;;;;7.28;100.00;99431.09;6123572;28;20306;-76
2024/03/29 06:05:10;;;;;;;1.50;0.80;;;;;;;7.39;100.00;99443.44;6142630;28;20325;-77
2024/03/29 06:08:31;;;;;;;2.40;1.60;;;;;;;7.39;100.00;99447.94;6139470;28;20238;-76
2024/03/29 06:11:52;;;;;;;0.93;0.87;;;;;;;7.36;100.00;99441.06;6115302;28;20238;-75
2024/03/29 06:18:52;;;;;;;2.60;1.00;;;;;;;7.62;100.00;99452.72;6146866;28;20226;-77
2024/03/29 06:22:14;;;;;;;1.07;0.77;;;;;;;7.69;100.00;99453.81;6106213;28;20230;-76
2024/03/29 06:25:35;;;;;;;1.00;1.00;;;;;;;7.78;100.00;99460.09;6111513;28;20809;-75
2024/03/29 06:28:56;;;;;;;1.27;1.20;;;;;;;7.94;100.00;99458.41;6122674;28;20238;-78
2024/03/29 06:32:18;;;;;;;3.80;1.67;;;;;;;7.82;100.00;99469.53;6110319;28;20613;-77
2024/03/29 06:35:39;;;;;;;3.03;1.27;;;;;;;7.76;100.00;99462.91;6105029;28;20226;-77
2024/03/29 06:39:03;;;;;;;2.07;1.30;;;;;;;7.77;100.00;99463.75;6133118;28;20223;-76
2024/03/29 06:42:24;;;;;;;3.00;0.87;;;;;;;7.85;100.00;99475.41;6132974;28;20239;-76
2024/03/29 06:45:46;;;;;;;4.43;1.23;;;;;;;7.91;100.00;99468.59;6129492;28;20243;-76
2024/03/29 06:49:07;;;;;;;1.67;1.50;;;;;;;7.93;100.00;99471.97;6146822;28;20239;-76
2024/03/29 06:52:28;;;;;;;1.57;1.10;;;;;;;7.97;100.00;99467.97;6137417;28;20245;-77
2024/03/29 06:55:50;;;;;;;2.63;1.27;;;;;;;8.02;100.00;99468.34;6135168;28;20244;-77
2024/03/29 06:59:11;;;;;;;2.23;1.63;;;;;;;8.23;100.00;99458.13;6125084;28;20246;-76
2024/03/29 07:02:32;;;;;;;2.10;2.00;;;;;;;8.29;100.00;99451.31;6118734;28;20901;-76
2024/03/29 07:05:53;;;;;;;3.83;1.57;;;;;;;8.33;100.00;99461.59;6135104;28;20238;-76
2024/03/29 07:09:14;;;;;;;1.73;1.63;;;;;;;8.23;100.00;99468.03;6136447;28;20270;-76
2024/03/29 07:12:37;;;;;;;1.20;1.10;;;;;;;8.36;100.00;99468.50;6119257;28;20235;-77
2024/03/29 07:15:58;;;;;;;2.90;1.20;;;;;;;8.52;100.00;99479.34;6111929;28;20262;-75
2024/03/29 07:19:19;;;;;;;3.60;1.80;;;;;;;8.64;100.00;99470.03;6126897;28;20241;-76
2024/03/29 07:22:39;;;;;;;1.13;0.97;;;;;;;8.73;100.00;99475.31;6128637;28;20238;-75
2024/03/29 07:26:02;;;;;;;2.50;1.60;;;;;;;8.75;100.00;99477.81;6138612;28;20234;-76
2024/03/29 07:29:24;;;;;;;2.57;1.80;;;;;;;8.84;100.00;99487.63;6126853;28;20230;-76
2024/03/29 07:32:46;;;;;;;2.53;1.20;;;;;;;8.88;100.00;99482.75;6124492;28;20230;-71
2024/03/29 07:36:09;;;;;;;1.20;1.10;;;;;;;9.05;100.00;99487.22;6121338;28;20733;-74
2024/03/29 07:39:30;;;;;;;2.80;1.07;;;;;;;9.10;100.00;99491.13;6145401;28;20237;-73
2024/03/29 07:42:50;;;;;;;2.77;1.33;;;;;;;9.08;100.00;99495.81;6123899;28;20234;-74
2024/03/29 07:46:13;;;;;;;1.30;1.20;;;;;;;9.14;100.00;99497.84;6140146;28;20705;-74
2024/03/29 07:49:34;;;;;;;1.57;1.10;;;;;;;9.17;100.00;99500.22;6139600;28;20234;-73
2024/03/29 07:52:54;;;;;;;2.23;1.43;;;;;;;9.20;100.00;99528.66;6122046;28;20234;-73
2024/03/29 07:56:16;;;;;;;2.17;1.27;;;;;;;9.25;100.00;99529.00;6118049;28;20574;-74
2024/03/29 07:59:38;;;;;;;1.13;0.70;;;;;;;9.29;100.00;99516.91;6123274;28;20230;-77
2024/03/29 08:03:01;;;;;;;2.33;1.37;;;;;;;9.35;100.00;99511.72;6125311;28;20254;-77
2024/03/29 08:06:23;;;;;;;1.30;1.17;;;;;;;9.27;100.00;99535.91;6138195;28;20774;-77
2024/03/29 08:09:43;;;;;;;3.40;1.37;;;;;;;9.33;100.00;99518.25;6139280;28;20234;-77
2024/03/29 08:13:06;;;;;;;2.17;1.10;;;;;;;9.37;100.00;99525.00;6103011;28;20239;-78
2024/03/29 08:16:28;;;;;;;1.50;1.23;;;;;;;9.37;100.00;99539.31;6127102;28;20799;-79
2024/03/29 08:19:50;;;;;;;0.70;0.70;;;;;;;9.40;100.00;99554.28;6123314;28;20231;-76
2024/03/29 08:23:11;;;;;;;2.40;1.23;;;;;;;9.40;100.00;99549.75;6142567;28;20231;-77
2024/03/29 08:26:32;;;;;;;2.23;1.10;;;;;;;9.46;100.00;99551.78;6121452;28;20231;-76
2024/03/29 08:29:53;;;;;;;1.13;1.03;;;;;;;9.50;100.00;99555.84;6120050;28;20589;-78
2024/03/29 08:33:14;;;;;;;1.83;0.70;;;;;;;9.47;100.00;99545.38;6098182;28;20235;-77
2024/03/29 08:36:36;;;;;;;2.70;1.17;;;;;;;9.52;100.00;99540.38;6139255;28;20223;-77
2024/03/29 08:39:57;;;;;;;2.63;1.67;;;;;;;9.58;100.00;99520.91;6118689;28;20222;-78
2024/03/29 08:43:18;;;;;;;2.23;1.20;;;;;;;9.66;100.00;99512.00;6129968;28;20237;-77
2024/03/29 08:46:39;;;;;;;0.80;0.80;;;;;;;9.69;100.00;99511.69;6135132;28;20235;-79
2024/03/29 08:50:00;;;;;;;1.33;0.90;;;;;;;9.78;100.00;99507.16;6126448;28;20335;-77
2024/03/29 08:53:23;;;;;;;1.50;0.90;;;;;;;9.78;100.00;99513.41;6142058;28;20227;-77
2024/03/29 08:56:43;;;;;;;0.70;0.70;;;;;;;9.88;100.00;99515.94;6123999;28;20240;-77
2024/03/29 09:00:06;;;;;;;2.00;0.80;;;;;;;9.89;100.00;99498.78;6128735;28;20255;-77
2024/03/29 09:03:27;;;;;;;1.43;1.00;;;;;;;9.89;100.00;99478.06;6122590;28;20227;-77
2024/03/29 09:06:48;;;;;;;0.70;0.70;;;;;;;9.68;100.00;99486.63;6112694;28;20235;-78
2024/03/29 09:10:12;;;;;;;4.50;1.40;;;;;;;9.83;100.00;99492.19;6131463;28;20254;-78
2024/03/29 09:13:34;;;;;;;2.97;0.80;;;;;;;9.86;100.00;99496.41;6107825;28;20317;-79
2024/03/29 09:16:54;;;;;;;2.63;1.43;;;;;;;10.13;100.00;99485.38;6131490;28;20223;-77
2024/03/29 09:20:16;;;;;;;2.37;1.10;;;;;;;10.10;100.00;99474.88;6124675;28;20928;-78
2024/03/29 09:23:41;;;;;;;1.23;0.90;;;;;;;10.25;100.00;99470.56;6122772;28;20218;-78
2024/03/29 09:27:04;;;;;;;1.50;1.30;;;;;;;10.19;100.00;99479.31;6097583;28;20251;-79
2024/03/29 09:30:34;;;;;;;2.10;0.93;;;;;;;9.92;100.00;99483.13;6137821;28;20253;-78
2024/03/29 09:33:57;;;;;;;1.50;1.20;;;;;;;9.68;100.00;99482.25;6143836;28;20231;-79
2024/03/29 09:37:27;;;;;;;1.20;1.10;;;;;;;9.51;100.00;99478.69;6143199;28;20613;-77
2024/03/29 09:40:53;;;;;;;3.80;1.60;;;;;;;9.42;100.00;99479.66;6121681;28;20239;-79
2024/03/29 09:44:17;;;;;;;2.50;1.20;;;;;;;9.55;100.00;99471.97;6119958;28;20254;-76
2024/03/29 09:47:39;;;;;;;1.17;1.10;;;;;;;9.52;100.00;99467.75;6115607;28;20238;-78
2024/03/29 09:51:00;;;;;;;2.10;1.20;;;;;;;9.68;100.00;99463.41;6095859;28;20231;-79
2024/03/29 09:54:22;;;;;;;2.87;1.90;;;;;;;9.90;100.00;99470.84;6120940;28;20322;-78
2024/03/29 09:57:43;;;;;;;0.83;0.73;;;;;;;9.80;100.00;99473.69;6141048;28;20246;-74
2024/03/29 10:01:07;;;;;;;3.87;2.07;;;;;;;9.63;100.00;99466.59;6137524;28;20223;-74
2024/03/29 10:04:29;;;;;;;4.00;1.40;;;;;;;9.64;100.00;99449.44;6134720;28;20238;-76
2024/03/29 10:07:51;;;;;;;3.77;1.60;;;;;;;9.65;100.00;99443.91;6121726;28;20234;-73
2024/03/29 10:11:12;;;;;;;1.90;1.80;;;;;;;9.81;100.00;99444.91;6090582;28;20609;-73
2024/03/29 10:14:48;;;;;;;1.10;1.00;;;;;;;9.80;100.00;99440.56;6128604;28;21189;-74
2024/03/29 10:18:12;;;;;;;2.60;0.90;;;;;;;9.86;100.00;99445.28;6100090;28;20335;-77
2024/03/29 10:21:33;;;;;;;1.20;1.10;;;;;;;9.89;100.00;99443.06;6121574;28;20317;-76
2024/03/29 10:24:54;;;;;;;1.20;1.07;;;;;;;9.86;100.00;99450.66;6137686;28;20254;-75
2024/03/29 10:28:15;;;;;;;3.47;1.80;;;;;;;10.39;100.00;99441.09;6106665;28;20230;-76
2024/03/29 10:31:36;;;;;;;1.03;0.70;;;;;;;10.79;100.00;99447.41;6121854;28;20230;-76
2024/03/29 10:35:02;;;;;;;3.30;1.33;;;;;;;10.69;100.00;99439.53;6145638;28;20227;-77
2024/03/29 10:38:25;;;;;;;0.80;0.80;;;;;;;10.17;100.00;99438.25;6140141;28;20243;-79
2024/03/29 10:41:48;;;;;;;1.13;1.13;;;;;;;10.08;100.00;99433.84;6140043;28;20501;-78
2024/03/29 10:45:11;;;;;;;3.53;1.27;;;;;;;10.62;100.00;99430.44;6097101;28;20231;-78
2024/03/29 10:48:33;;;;;;;2.43;1.07;;;;;;;10.38;100.00;99428.66;6125501;28;20610;-79
2024/03/29 10:51:59;;;;;;;2.20;1.10;;;;;;;10.56;100.00;99439.22;6129255;28;20227;-81
2024/03/29 10:55:23;;;;;;;2.10;1.60;;;;;;;10.26;100.00;99440.75;6137123;28;20337;-75
2024/03/29 10:58:55;;;;;;;3.97;1.17;;;;;;;10.39;100.00;99432.16;6150950;28;20254;-74
2024/03/29 11:02:30;;;;;;;1.60;1.37;;;;;;;10.25;100.00;99436.41;6140526;28;20235;-79
2024/03/29 11:05:52;;;;;;;1.30;1.20;;;;;;;9.99;100.00;99426.78;6129915;28;20234;-80
2024/03/29 11:09:16;;;;;;;2.03;1.57;;;;;;;10.26;100.00;99434.56;6135664;28;20250;-77
2024/03/29 11:12:46;;;;;;;1.53;1.43;;;;;;;10.07;100.00;99435.72;6120809;28;20235;-80
2024/03/29 11:16:11;;;;;;;2.73;1.00;;;;;;;10.46;100.00;99443.94;6128334;28;20672;-77
2024/03/29 11:19:32;;;;;;;1.50;1.13;;;;;;;10.43;100.00;99449.66;6157583;28;20591;-76
2024/03/29 11:22:54;;;;;;;3.20;2.67;;;;;;;10.49;100.00;99450.84;6133647;28;20254;-75
2024/03/29 11:26:17;;;;;;;2.13;1.17;;;;;;;10.44;100.00;99443.28;6146566;28;20230;-76
2024/03/29 11:29:45;;;;;;;3.47;1.30;;;;;;;10.58;100.00;99450.66;6151200;28;20235;-77
2024/03/29 11:33:06;;;;;;;3.80;1.67;;;;;;;10.70;100.00;99435.78;6152971;28;20609;-79
2024/03/29 11:36:31;;;;;;;1.83;1.60;;;;;;;10.97;100.00;99442.66;6129516;28;20309;-82
2024/03/29 11:39:55;;;;;;;9.80;2.60;;;;;;;11.24;100.00;99440.31;6135512;28;20231;-79
2024/03/29 11:43:17;;;;;;;3.23;2.37;;;;;;;11.11;100.00;99463.50;6147224;28;20313;-79
2024/03/29 11:46:39;;;;;;;2.83;2.00;;;;;;;11.04;100.00;99465.19;6135145;28;20309;-78
2024/03/29 11:50:01;;;;;;;3.00;2.10;;;;;;;11.00;100.00;99464.72;6127700;28;20231;-84
2024/03/29 11:53:22;;;;;;;3.33;1.73;;;;;;;11.15;100.00;99441.41;6125073;28;20227;-83
2024/03/29 11:56:43;;;;;;;3.33;1.40;;;;;;;11.22;100.00;99428.88;6146381;28;20602;-82
2024/03/29 12:00:30;;;;;;;;;;;;;;;;;;;;;
2024/03/29 12:03:52;;;;;;;2.90;0.90;;;;;;;11.52;100.00;99440.69;6141203;28;20259;-81
2024/03/29 12:07:13;;;;;;;1.43;1.33;;;;;;;11.36;100.00;99440.78;6143934;28;20238;-80
2024/03/29 12:10:36;;;;;;;1.30;1.20;;;;;;;11.35;100.00;99460.69;6138107;28;20232;-80
2024/03/29 12:13:58;;;;;;;3.33;1.50;;;;;;;11.68;100.00;99464.09;6123899;28;20633;-80
2024/03/29 12:17:20;;;;;;;4.20;1.47;;;;;;;11.90;100.00;99445.22;6151106;28;20227;-79
2024/03/29 12:20:41;;;;;;;3.03;1.93;;;;;;;12.47;100.00;99437.47;6119928;28;20218;-81
2024/03/29 12:24:03;;;;;;;1.50;1.40;;;;;;;12.15;100.00;99443.16;6128226;28;20230;-83
2024/03/29 12:27:24;;;;;;;1.00;0.90;;;;;;;12.47;100.00;99437.47;6125304;28;20321;-81
2024/03/29 12:30:46;;;;;;;1.33;1.07;;;;;;;12.99;100.00;99442.00;6132349;28;20227;-80
2024/03/29 12:34:08;;;;;;;2.60;0.80;;;;;;;12.18;100.00;99442.81;6127732;28;20234;-78
2024/03/29 12:37:29;;;;;;;1.77;1.47;;;;;;;12.00;100.00;99448.50;6123158;28;21254;-80
2024/03/29 12:40:51;;;;;;;1.50;1.00;;;;;;;11.83;100.00;99462.28;6157602;28;20539;-82
2024/03/29 12:44:12;;;;;;;1.47;0.77;;;;;;;11.78;100.00;99472.81;6153979;28;20231;-82
2024/03/29 12:47:35;;;;;;;1.40;1.30;;;;;;;11.76;100.00;99462.19;6110719;28;20343;-81
2024/03/29 12:50:57;;;;;;;1.70;1.10;;;;;;;11.99;100.00;99492.72;6130886;28;20226;-81
2024/03/29 12:54:18;;;;;;;2.50;1.67;;;;;;;11.76;100.00;99483.78;6138119;28;20620;-79
2024/03/29 12:57:42;;;;;;;3.53;1.47;;;;;;;11.83;100.00;99465.00;6141457;28;20238;-79
2024/03/29 13:01:05;;;;;;;3.70;1.57;;;;;;;12.03;100.00;99458.13;6138636;28;20244;-82
2024/03/29 13:04:26;;;;;;;2.07;1.30;;;;;;;12.04;100.00;99463.34;6141826;28;20266;-80
2024/03/29 13:07:49;;;;;;;1.07;0.97;;;;;;;11.97;100.00;99496.66;6144716;28;20292;-81
2024/03/29 13:11:10;;;;;;;1.67;1.57;;;;;;;11.99;100.00;99492.72;6149153;28;21582;-80
2024/03/29 13:14:32;;;;;;;1.53;1.43;;;;;;;12.12;100.00;99489.44;6153260;28;20546;-81
2024/03/29 13:17:54;;;;;;;1.50;0.97;;;;;;;12.13;100.00;99492.97;6142596;28;20239;-83
2024/03/29 13:21:15;;;;;;;1.33;1.23;;;;;;;12.30;100.00;99467.53;6125616;28;20222;-82
2024/03/29 13:24:38;;;;;;;0.90;0.90;;;;;;;12.36;100.00;99491.13;6137734;28;20235;-82
2024/03/29 13:27:58;;;;;;;1.37;1.27;;;;;;;12.37;100.00;99501.75;6131172;28;20238;-80
2024/03/29 13:31:19;;;;;;;0.90;0.90;;;;;;;12.28;100.00;99486.63;6117722;28;20239;-81
2024/03/29 13:34:40;;;;;;;1.23;1.10;;;;;;;12.31;100.00;99464.63;6142061;28;20235;-80
2024/03/29 13:38:01;;;;;;;1.73;1.03;;;;;;;12.47;100.00;99451.00;6124665;28;20234;-81
2024/03/29 13:41:24;;;;;;;2.63;1.00;;;;;;;12.44;100.00;99464.03;6134430;28;20845;-82
2024/03/29 13:44:45;;;;;;;2.00;1.23;;;;;;;12.53;100.00;99477.28;6109854;28;20651;-82
2024/03/29 13:48:07;;;;;;;1.33;1.23;;;;;;;12.73;100.00;99510.03;6137832;28;20626;-82
2024/03/29 13:51:28;;;;;;;2.00;1.23;;;;;;;12.72;100.00;99514.59;6150034;28;20230;-82
2024/03/29 13:54:50;;;;;;;1.57;0.90;;;;;;;12.68;100.00;99520.59;6153439;28;20222;-82
2024/03/29 13:58:12;;;;;;;4.00;1.07;;;;;;;12.94;100.00;99526.41;6157086;28;20643;-83
2024/03/29 14:01:33;;;;;;;1.00;0.90;;;;;;;12.69;100.00;99523.09;6129107;28;20239;-81
2024/03/29 14:04:55;;;;;;;1.50;0.83;;;;;;;12.63;100.00;99520.28;6127840;28;20234;-81
2024/03/29 14:08:16;;;;;;;1.30;1.20;;;;;;;12.71;100.00;99528.31;6122256;28;20251;-81
2024/03/29 14:11:37;;;;;;;0.93;0.93;;;;;;;12.72;100.00;99530.00;6118492;28;20231;-80
2024/03/29 14:15:00;;;;;;;1.93;1.33;;;;;;;12.76;100.00;99524.06;6127467;28;20239;-82
2024/03/29 14:18:21;;;;;;;1.47;1.13;;;;;;;12.71;100.00;99512.94;6118593;28;20353;-81
2024/03/29 14:21:42;;;;;;;2.30;1.40;;;;;;;12.97;100.00;99519.78;6143262;28;20238;-80
2024/03/29 14:25:04;;;;;;;1.00;0.90;;;;;;;13.47;100.00;99512.66;6139572;28;20328;-82
2024/03/29 14:28:25;;;;;;;1.30;1.30;;;;;;;13.54;100.00;99515.44;6122167;28;20234;-81
2024/03/29 14:31:47;;;;;;;0.50;0.50;;;;;;;13.27;100.00;99511.53;6133410;28;20227;-83
2024/03/29 14:35:10;;;;;;;0.60;0.60;;;;;;;14.08;100.00;99505.88;6143885;28;20317;-80
2024/03/29 14:38:31;;;;;;;0.87;0.87;;;;;;;14.72;100.00;99486.91;6134112;28;20242;-81
2024/03/29 14:41:52;;;;;;;1.23;1.10;;;;;;;15.73;100.00;99487.97;6143134;28;20230;-83
2024/03/29 14:45:14;;;;;;;0.80;0.80;;;;;;;15.48;100.00;99491.41;6142141;28;20234;-80
2024/03/29 14:48:36;;;;;;;0.80;0.80;;;;;;;15.16;100.00;99492.88;6148269;28;20254;-81
2024/03/29 14:51:57;;;;;;;0.60;0.60;;;;;;;15.47;100.00;99501.44;6132570;28;20226;-82
2024/03/29 14:55:18;;;;;;;3.30;1.10;;;;;;;15.24;100.00;99487.28;6131931;28;20230;-81
2024/03/29 14:58:39;;;;;;;0.73;0.73;;;;;;;14.38;100.00;99496.63;6127911;28;20238;-82
2024/03/29 15:02:00;;;;;;;1.03;0.90;;;;;;;14.33;100.00;99500.97;6143935;28;20826;-82
2024/03/29 15:05:23;;;;;;;0.87;0.80;;;;;;;14.05;100.00;99489.16;6143014;28;20226;-82
2024/03/29 15:08:44;;;;;;;1.03;0.80;;;;;;;13.82;100.00;99505.59;6159039;28;20233;-82
2024/03/29 15:12:05;;;;;;;1.10;0.83;;;;;;;13.70;100.00;99508.97;6142723;28;20231;-82
2024/03/29 15:15:26;;;;;;;5.20;2.20;;;;;;;14.00;100.00;99500.59;6138008;28;20230;-82
2024/03/29 15:18:47;;;;;;;1.27;1.17;;;;;;;14.19;100.00;99518.09;6132984;28;20600;-81
2024/03/29 15:22:19;;;;;;;1.17;1.07;;;;;;;13.98;100.00;99539.72;6149534;28;20227;-82
2024/03/29 15:25:42;;;;;;;1.50;0.90;;;;;;;13.74;100.00;99562.59;6141736;28;20230;-81
2024/03/29 15:29:10;;;;;;;2.10;1.20;;;;;;;13.82;100.00;99551.66;6117087;28;20671;-81
2024/03/29 15:32:32;;;;;;;0.97;0.87;;;;;;;13.81;100.00;99531.00;6142169;28;20249;-82
2024/03/29 15:35:53;;;;;;;1.10;1.03;;;;;;;13.49;100.00;99528.72;6145684;28;20239;-81
2024/03/29 15:39:20;;;;;;;1.87;1.60;;;;;;;13.72;100.00;99537.56;6147371;28;20234;-81
2024/03/29 15:43:03;;;;;;;1.40;1.30;;;;;;;13.49;100.00;99534.97;6137539;28;20243;-83
2024/03/29 15:46:24;;;;;;;0.90;0.90;;;;;;;13.39;100.00;99547.09;6147461;28;20232;-81
2024/03/29 15:49:45;;;;;;;0.73;0.73;;;;;;;13.33;100.00;99558.69;6159576;28;20235;-82
2024/03/29 15:53:06;;;;;;;1.40;1.20;;;;;;;13.27;100.00;99590.03;6139637;28;20231;-82
2024/03/29 15:56:29;;;;;;;1.07;1.03;;;;;;;13.17;100.00;99588.59;6156373;28;20231;-83
2024/03/29 15:59:49;;;;;;;1.33;1.20;;;;;;;13.24;100.00;99584.16;6147844;28;20239;-80
2024/03/29 16:03:12;;;;;;;1.63;0.80;;;;;;;13.21;100.00;99571.81;6137855;28;20227;-79
2024/03/29 16:06:33;;;;;;;1.40;1.30;;;;;;;13.26;100.00;99571.28;6130467;28;20246;-82
2024/03/29 16:09:54;;;;;;;1.50;1.40;;;;;;;13.32;100.00;99565.97;6127928;28;20238;-81
2024/03/29 16:13:16;;;;;;;1.70;1.60;;;;;;;13.34;100.00;99585.56;6149415;28;20239;-82
2024/03/29 16:16:37;;;;;;;1.40;1.30;;;;;;;13.40;100.00;99554.19;6157821;28;20238;-82
2024/03/29 16:19:57;;;;;;;1.03;0.90;;;;;;;13.48;100.00;99554.94;6143292;28;20235;-83
2024/03/29 16:23:18;;;;;;;1.87;1.30;;;;;;;13.79;100.00;99543.06;6150753;28;21963;-81
2024/03/29 16:26:38;;;;;;;2.17;1.50;;;;;;;13.69;100.00;99583.97;6141686;28;20234;-81
2024/03/29 16:30:00;;;;;;;1.60;1.50;;;;;;;13.77;100.00;99580.34;6120990;28;20672;-80
2024/03/29 16:33:21;;;;;;;1.30;1.20;;;;;;;13.71;100.00;99583.78;6151043;28;20628;-81
2024/03/29 16:36:40;;;;;;;1.70;1.30;;;;;;;13.50;100.00;99596.19;6134840;28;20220;-79
2024/03/29 16:40:02;;;;;;;1.53;1.33;;;;;;;13.66;100.00;99591.63;6133128;28;20255;-79
2024/03/29 16:43:23;;;;;;;1.43;1.33;;;;;;;13.75;100.00;99591.34;6139901;28;20236;-81
2024/03/29 16:46:44;;;;;;;2.07;1.60;;;;;;;13.75;100.00;99590.53;6121953;28;20258;-82
2024/03/29 16:50:07;;;;;;;1.23;1.10;;;;;;;13.86;100.00;99590.03;6148019;28;20234;-81
2024/03/29 16:53:28;;;;;;;1.33;1.23;;;;;;;13.74;100.00;99589.69;6130557;28;20726;-81
2024/03/29 16:56:49;;;;;;;4.40;1.63;;;;;;;13.83;100.00;99599.34;6142190;28;20226;-81
2024/03/29 17:00:10;;;;;;;1.63;1.10;;;;;;;13.84;100.00;99590.22;6138024;28;20628;-81
2024/03/29 17:03:33;;;;;;;2.03;1.70;;;;;;;13.79;100.00;99595.34;6143375;28;20322;-80
2024/03/29 17:06:54;;;;;;;1.23;1.10;;;;;;;13.68;100.00;99595.00;6151480;28;20230;-80
2024/03/29 17:10:15;;;;;;;1.30;1.20;;;;;;;13.69;100.00;99608.34;6138157;28;20250;-81
2024/03/29 17:13:35;;;;;;;2.53;1.23;;;;;;;13.54;100.00;99602.06;6139180;28;20258;-81
2024/03/29 17:16:59;;;;;;;2.23;1.73;;;;;;;13.46;100.00;99610.28;6129922;28;20221;-80
2024/03/29 17:20:21;;;;;;;1.47;1.33;;;;;;;13.35;100.00;99625.13;6137931;28;20229;-81
2024/03/29 17:23:41;;;;;;;1.60;1.50;;;;;;;13.36;100.00;99621.41;6136811;28;20228;-81
2024/03/29 17:27:02;;;;;;;2.10;1.47;;;;;;;13.38;100.00;99624.78;6138659;28;20239;-81
2024/03/29 17:30:23;;;;;;;4.10;2.37;;;;;;;13.32;100.00;99620.09;6146285;28;20614;-80
2024/03/29 17:33:43;;;;;;;1.70;1.30;;;;;;;13.25;100.00;99621.84;6102034;28;20223;-80
2024/03/29 17:37:06;;;;;;;1.77;1.60;;;;;;;13.20;100.00;99634.25;6133671;28;20223;-80
2024/03/29 17:40:29;;;;;;;2.63;1.40;;;;;;;13.15;100.00;99631.25;6138893;28;20222;-80